Time;durP1;ratioP1;P1;durP2;ratioP2;P2;SDS_P1;SDS_P2;PMS_P1;PMS_P2;Temp;Humidity;BMP_temperature;BMP_pressure;BME280_temperature;BME280_humidity;BME280_pressure;Samples;Min_cycle;Max_cycle;Signal;HPM_P1;HPM_P2
2022/01/13 00:01:54;;;;;;;17.80;8.83;;;;;;;-10.16;76.79;101091.08;1743963;82;21208;-80
2022/01/13 00:05:01;;;;;;;16.77;9.73;;;;;;;-10.18;76.53;101092.86;1744650;82;21162;-79
2022/01/13 00:08:06;;;;;;;18.70;9.13;;;;;;;-10.21;76.26;101087.61;1745742;82;21157;-81
2022/01/13 00:11:12;;;;;;;24.77;9.80;;;;;;;-10.28;76.01;101083.83;1744758;82;21308;-81
2022/01/13 00:17:31;;;;;;;18.98;9.75;;;;;;;-10.39;75.76;101087.98;1745902;82;21859;-80
2022/01/13 00:26:47;;;;;;;16.95;7.15;;;;;;;-10.60;74.95;101097.99;1745681;82;21153;-80
2022/01/13 00:29:56;;;;;;;18.17;7.83;;;;;;;-10.71;74.60;101097.30;1745823;82;21257;-77
2022/01/13 00:33:02;;;;;;;16.05;8.65;;;;;;;-10.80;74.38;101093.47;1745778;82;21209;-80
2022/01/13 00:36:07;;;;;;;16.57;8.50;;;;;;;-10.87;74.36;101098.41;1745584;82;21315;-81
2022/01/13 00:39:14;;;;;;;13.53;8.08;;;;;;;-10.94;74.29;101090.16;1745828;82;21497;-80
2022/01/13 00:42:22;;;;;;;15.93;7.72;;;;;;;-11.03;74.28;101091.61;1745662;82;21201;-81
2022/01/13 00:45:27;;;;;;;18.57;7.35;;;;;;;-11.14;74.37;101094.41;1745760;82;21817;-80
2022/01/13 00:48:33;;;;;;;15.75;7.80;;;;;;;-11.21;74.65;101084.80;1745822;82;21312;-78
2022/01/13 00:51:38;;;;;;;14.98;7.87;;;;;;;-11.28;74.99;101092.39;1745789;82;21300;-80
2022/01/13 00:54:44;;;;;;;12.73;7.67;;;;;;;-11.34;75.32;101095.97;1745844;82;21185;-81
2022/01/13 00:57:49;;;;;;;17.55;8.25;;;;;;;-11.40;75.64;101099.56;1749334;81;21300;-80
2022/01/13 01:00:54;;;;;;;12.00;7.37;;;;;;;-11.44;75.96;101101.81;1752885;82;21320;-80
2022/01/13 01:03:59;;;;;;;13.13;7.28;;;;;;;-11.42;76.21;101102.69;1753030;82;21284;-81
2022/01/13 01:07:04;;;;;;;12.95;7.45;;;;;;;-11.40;76.38;101101.33;1752962;82;21324;-77
2022/01/13 01:10:10;;;;;;;14.18;7.35;;;;;;;-11.36;76.50;101100.41;1752980;82;21266;-81
2022/01/13 01:13:19;;;;;;;19.32;8.35;;;;;;;-11.34;76.66;101092.00;1752996;82;21273;-81
2022/01/13 01:16:23;;;;;;;14.65;7.37;;;;;;;-11.32;76.83;101094.64;1752412;82;21324;-80
2022/01/13 01:19:30;;;;;;;16.90;8.08;;;;;;;-11.27;77.20;101091.05;1752935;82;21781;-81
2022/01/13 01:22:43;;;;;;;13.22;8.23;;;;;;;-11.22;77.28;101094.50;1751483;82;21312;-81
2022/01/13 01:25:49;;;;;;;17.17;8.58;;;;;;;-11.18;77.23;101099.30;1752720;82;21313;-80
2022/01/13 01:28:58;;;;;;;15.50;8.23;;;;;;;-11.14;77.43;101103.66;1752977;82;21277;-78
2022/01/13 01:32:03;;;;;;;19.30;6.72;;;;;;;-11.09;77.76;101093.44;1752900;82;21198;-76
2022/01/13 01:35:13;;;;;;;;;;;;;;;-11.01;77.98;101091.13;1755561;82;21289;-81
2022/01/13 01:38:13;;;;;;;18.48;7.75;;;;;;;-10.99;77.53;101094.64;1752867;82;20244;-80
2022/01/13 01:41:19;;;;;;;11.80;6.40;;;;;;;-11.07;75.78;101105.30;1752717;82;21735;-80
2022/01/13 01:44:36;;;;;;;10.10;6.50;;;;;;;-11.19;74.92;101091.83;1752921;82;21277;-77
2022/01/13 01:47:39;;;;;;;9.80;5.08;;;;;;;-11.35;73.64;101092.45;1752892;82;21301;-77
2022/01/13 01:50:53;;;;;;;11.75;6.17;;;;;;;-11.48;73.13;101101.87;1753085;82;21308;-81
2022/01/13 01:53:52;;;;;;;8.68;5.45;;;;;;;-11.60;72.72;101104.22;1753019;82;21321;-81
2022/01/13 01:56:58;;;;;;;8.18;5.62;;;;;;;-11.66;72.23;101106.94;1752024;82;21300;-77
2022/01/13 02:00:05;;;;;;;10.32;5.53;;;;;;;-11.75;71.60;101108.36;1756616;81;21273;-81
2022/01/13 02:03:13;;;;;;;10.80;5.72;;;;;;;-11.79;71.14;101117.20;1758711;81;21273;-77
2022/01/13 02:06:19;;;;;;;10.05;5.83;;;;;;;-11.83;70.71;101120.79;1758178;81;21320;-80
2022/01/13 02:09:23;;;;;;;14.93;6.85;;;;;;;-11.90;70.37;101119.95;1758836;81;21787;-77
2022/01/13 02:12:33;;;;;;;14.55;6.17;;;;;;;-11.96;70.11;101117.39;1758480;81;21154;-77
2022/01/13 02:15:47;;;;;;;9.58;6.65;;;;;;;-11.99;69.91;101122.27;1757056;81;21169;-80
2022/01/13 02:18:42;;;;;;;11.38;6.28;;;;;;;-12.00;69.59;101127.09;1758630;81;21316;-80
2022/01/13 02:21:47;;;;;;;8.90;5.53;;;;;;;-12.01;69.26;101117.88;1758694;81;21324;-77
2022/01/13 02:24:53;;;;;;;12.58;6.12;;;;;;;-12.06;68.96;101126.29;1758662;81;21870;-77
2022/01/13 02:27:58;;;;;;;12.23;6.08;;;;;;;-12.15;69.15;101128.12;1747677;81;21811;-80
2022/01/13 02:31:04;;;;;;;11.28;6.53;;;;;;;-12.22;69.53;101129.52;1705672;84;21837;-78
2022/01/13 02:34:09;;;;;;;13.28;6.33;;;;;;;-12.33;70.02;101136.19;1693415;85;21300;-77
2022/01/13 02:37:14;;;;;;;14.20;7.28;;;;;;;-12.43;70.52;101122.20;1693972;83;21339;-80
2022/01/13 02:40:19;;;;;;;9.60;5.85;;;;;;;-12.50;70.93;101142.05;1692030;85;21367;-80
2022/01/13 02:43:25;;;;;;;12.58;6.55;;;;;;;-12.58;71.42;101139.46;1692237;85;21676;-76
2022/01/13 02:49:41;;;;;;;12.93;7.03;;;;;;;-12.68;72.28;101137.34;1692039;85;21355;-81
2022/01/13 02:52:46;;;;;;;15.70;8.05;;;;;;;-12.73;72.75;101135.17;1693363;85;21336;-78
2022/01/13 02:55:54;;;;;;;13.78;7.03;;;;;;;-12.79;73.31;101138.31;1693527;85;21904;-82
2022/01/13 02:58:58;;;;;;;13.65;7.90;;;;;;;-12.87;73.81;101134.39;1692611;85;21355;-81
2022/01/13 03:02:04;;;;;;;14.47;7.85;;;;;;;-12.93;74.26;101131.80;1686729;85;21322;-78
2022/01/13 03:05:13;;;;;;;16.20;8.63;;;;;;;-12.99;74.61;101141.91;1687895;85;21295;-76
2022/01/13 03:08:18;;;;;;;17.57;8.08;;;;;;;-13.04;74.97;101141.50;1687931;85;21299;-80
2022/01/13 03:11:31;;;;;;;14.75;7.55;;;;;;;-13.08;75.41;101157.75;1686631;85;21232;-77
2022/01/13 03:14:31;;;;;;;13.03;7.50;;;;;;;-13.09;75.45;101149.88;1686739;85;21374;-81
2022/01/13 03:17:36;;;;;;;11.33;6.47;;;;;;;-13.11;75.53;101152.97;1686442;85;21754;-81
2022/01/13 03:20:42;;;;;;;12.63;7.70;;;;;;;-13.13;75.63;101158.22;1687757;85;21256;-81
2022/01/13 03:23:48;;;;;;;13.53;6.60;;;;;;;-13.18;75.81;101161.32;1687829;85;21322;-81
2022/01/13 03:26:54;;;;;;;13.80;6.55;;;;;;;-13.23;75.91;101162.69;1687059;85;21334;-77
2022/01/13 03:30:02;;;;;;;13.68;6.80;;;;;;;-13.24;76.00;101171.47;1686540;85;21249;-77
2022/01/13 03:33:08;;;;;;;10.13;5.65;;;;;;;-13.20;76.06;101163.09;1687929;85;21307;-80
2022/01/13 03:36:13;;;;;;;8.80;5.70;;;;;;;-13.16;76.08;101163.08;1687355;85;21375;-77
2022/01/13 03:39:19;;;;;;;9.68;6.25;;;;;;;-13.24;76.21;101164.02;1667160;85;21311;-77
2022/01/13 03:42:24;;;;;;;11.68;5.35;;;;;;;-13.33;76.54;101168.87;1686751;85;21232;-78
2022/01/13 03:45:32;;;;;;;10.18;5.53;;;;;;;-13.36;76.58;101183.36;1687557;85;21833;-78
2022/01/13 03:48:37;;;;;;;12.90;6.22;;;;;;;-13.31;76.29;101178.98;1686737;85;21342;-81
2022/01/13 03:52:06;;;;;;;11.33;6.55;;;;;;;-13.28;76.06;101186.84;1687087;85;21331;-81
2022/01/13 03:55:31;;;;;;;;;;;;;;;-13.26;75.64;101192.13;1688950;85;21177;-79
2022/01/13 03:59:33;;;;;;;11.75;6.47;;;;;;;-13.30;74.77;101195.20;1686749;85;20261;-80
2022/01/13 04:02:34;;;;;;;12.23;5.72;;;;;;;-13.35;74.37;101196.98;1686633;85;21355;-81
2022/01/13 04:05:39;;;;;;;10.85;6.30;;;;;;;-13.45;73.66;101190.87;1687745;85;21350;-81
2022/01/13 04:08:44;;;;;;;12.70;6.22;;;;;;;-13.56;72.58;101188.69;1686839;85;21307;-81
2022/01/13 04:11:49;;;;;;;12.00;5.55;;;;;;;-13.60;72.07;101182.98;1665247;85;22153;-77
2022/01/13 04:15:00;;;;;;;13.85;5.83;;;;;;;-13.66;71.78;101198.36;1686210;85;21860;-78
2022/01/13 04:18:05;;;;;;;9.37;5.67;;;;;;;-13.72;71.75;101187.86;1687491;85;21247;-80
2022/01/13 04:21:10;;;;;;;16.25;6.72;;;;;;;-13.75;71.92;101210.21;1686699;85;21364;-76
2022/01/13 04:24:19;;;;;;;9.48;5.42;;;;;;;-13.77;71.63;101198.83;1687916;85;21477;-80
2022/01/13 04:27:38;;;;;;;16.52;6.22;;;;;;;-13.81;71.52;101197.08;1686595;85;21335;-80
2022/01/13 04:33:48;;;;;;;13.55;5.25;;;;;;;-13.84;71.09;101194.44;1688894;84;21217;-78
2022/01/13 04:36:54;;;;;;;11.25;6.20;;;;;;;-13.86;70.96;101190.95;1697117;84;21311;-80
2022/01/13 04:39:59;;;;;;;12.90;5.95;;;;;;;-13.91;70.78;101184.82;1715292;83;21329;-77
2022/01/13 04:43:04;;;;;;;10.18;5.10;;;;;;;-13.95;70.86;101185.70;1714689;83;21150;-80
2022/01/13 04:46:10;;;;;;;11.30;5.80;;;;;;;-13.98;70.95;101187.00;1714307;83;21304;-77
2022/01/13 04:49:16;;;;;;;10.80;5.17;;;;;;;-14.03;71.09;101189.64;1700652;83;21332;-80
2022/01/13 04:52:21;;;;;;;9.40;5.05;;;;;;;-14.00;71.34;101178.25;1714688;83;21771;-80
2022/01/13 04:55:30;;;;;;;12.03;5.15;;;;;;;-13.96;71.31;101180.01;1714615;83;21292;-80
2022/01/13 04:58:34;;;;;;;5.65;3.98;;;;;;;-13.96;71.19;101191.84;1714589;83;21834;-77
2022/01/13 05:01:39;;;;;;;12.15;6.80;;;;;;;-13.93;71.26;101191.81;1725993;81;21205;-77
2022/01/13 05:04:45;;;;;;;12.47;6.15;;;;;;;-13.93;71.09;101204.97;1756030;82;21872;-79
2022/01/13 05:07:50;;;;;;;16.17;6.15;;;;;;;-13.84;70.89;101212.85;1739837;82;21283;-80
2022/01/13 05:10:54;;;;;;;11.83;6.42;;;;;;;-13.81;70.79;101199.70;1752474;82;21326;-80
2022/01/13 05:14:00;;;;;;;13.70;5.62;;;;;;;-13.78;70.60;101201.03;1729317;83;21333;-80
2022/01/13 05:17:11;;;;;;;10.98;5.83;;;;;;;-13.77;70.41;101200.59;1729254;83;21208;-77
2022/01/13 05:20:23;;;;;;;8.55;4.33;;;;;;;-13.81;70.43;101208.91;1729307;83;21799;-78
2022/01/13 05:23:27;;;;;;;9.88;5.90;;;;;;;-13.82;70.65;101211.11;1731358;81;21771;-80
2022/01/13 05:26:32;;;;;;;15.48;6.25;;;;;;;-13.80;70.88;101213.29;1760363;81;21193;-77
2022/01/13 05:29:55;;;;;;;14.23;6.30;;;;;;;-13.77;70.89;101211.98;1749953;81;21313;-80
2022/01/13 05:33:00;;;;;;;19.65;5.62;;;;;;;-13.82;70.93;101214.19;1748313;81;21182;-77
2022/01/13 05:36:05;;;;;;;13.68;5.53;;;;;;;-13.88;71.12;101217.67;1746955;81;21358;-81
2022/01/13 05:39:11;;;;;;;16.23;5.50;;;;;;;-13.93;71.38;101219.43;1760145;81;21180;-80
2022/01/13 05:42:15;;;;;;;10.63;5.85;;;;;;;-13.89;71.54;101220.31;1755920;81;21296;-80
2022/01/13 05:45:28;;;;;;;12.68;6.28;;;;;;;-13.93;71.60;101219.43;1735507;81;22019;-77
2022/01/13 05:48:28;;;;;;;15.13;5.78;;;;;;;-13.97;71.81;101230.83;1748737;81;21272;-80
2022/01/13 05:51:35;;;;;;;9.63;4.78;;;;;;;-13.88;72.07;101233.45;1748514;80;21211;-76
2022/01/13 05:54:41;;;;;;;10.60;5.40;;;;;;;-13.86;72.03;101230.84;1754364;79;21267;-76
2022/01/13 05:57:49;;;;;;;13.98;5.65;;;;;;;-13.82;72.16;101224.70;1705829;83;21337;-80
2022/01/13 06:00:55;;;;;;;14.78;7.25;;;;;;;-13.76;72.10;101208.91;1745187;81;21290;-77
2022/01/13 06:04:01;;;;;;;15.93;6.33;;;;;;;-13.73;72.12;101208.91;1749654;81;21268;-80
2022/01/13 06:07:05;;;;;;;14.07;7.17;;;;;;;-13.67;72.15;101218.10;1752452;79;22209;-77
2022/01/13 06:10:26;;;;;;;13.20;6.33;;;;;;;-13.66;72.24;101222.48;1746734;79;21169;-78
2022/01/13 06:13:32;;;;;;;15.90;7.42;;;;;;;-13.52;72.43;101219.38;1746475;79;21709;-77
2022/01/13 06:16:39;;;;;;;10.78;5.40;;;;;;;-13.39;72.33;101214.09;1743303;79;21735;-81
2022/01/13 06:19:45;;;;;;;12.10;5.92;;;;;;;-13.27;72.34;101227.20;1744842;80;21896;-76
2022/01/13 06:22:51;;;;;;;11.65;6.10;;;;;;;-13.18;72.10;101224.07;1751691;79;21737;-77
2022/01/13 06:25:57;;;;;;;9.18;5.72;;;;;;;-13.13;71.96;101231.95;1748764;79;22212;-78
2022/01/13 06:29:04;;;;;;;14.70;5.75;;;;;;;-13.09;71.84;101235.45;1677486;83;21593;-78
2022/01/13 06:32:11;;;;;;;14.40;7.03;;;;;;;-13.02;71.70;101242.47;1674965;83;21173;-77
2022/01/13 06:35:18;;;;;;;12.73;6.75;;;;;;;-12.95;71.63;101242.86;1741155;79;21161;-78
2022/01/13 06:38:23;;;;;;;10.82;6.28;;;;;;;-12.85;71.51;101238.44;1742660;79;21295;-81
2022/01/13 06:41:29;;;;;;;13.43;5.08;;;;;;;-12.77;71.25;101242.79;1742165;79;21957;-80
2022/01/13 06:44:37;;;;;;;11.08;6.17;;;;;;;-12.75;70.99;101234.45;1741590;79;21314;-80
2022/01/13 06:47:45;;;;;;;14.10;6.03;;;;;;;-12.75;70.93;101226.96;1743804;79;21682;-79
2022/01/13 06:50:55;;;;;;;13.98;5.40;;;;;;;-12.75;71.45;101213.37;1745375;79;21256;-81
2022/01/13 06:54:01;;;;;;;12.07;6.00;;;;;;;-12.64;71.58;101222.53;1740036;80;21185;-82
2022/01/13 06:57:09;;;;;;;13.48;6.30;;;;;;;-12.62;71.41;101212.84;1738986;79;21233;-80
2022/01/13 07:00:15;;;;;;;13.53;4.92;;;;;;;-12.58;71.29;101217.21;1737309;81;21535;-77
2022/01/13 07:03:22;;;;;;;11.22;5.70;;;;;;;-12.57;71.07;101211.50;1700664;81;21189;-76
2022/01/13 07:06:30;;;;;;;11.08;6.08;;;;;;;-12.62;71.22;101208.44;1741670;81;21806;-76
2022/01/13 07:09:38;;;;;;;8.83;5.33;;;;;;;-12.57;71.72;101203.14;1741698;81;21211;-77
2022/01/13 07:12:43;;;;;;;12.23;5.55;;;;;;;-12.50;71.76;101204.88;1741178;81;21528;-78
2022/01/13 07:15:54;;;;;;;11.10;5.12;;;;;;;-12.46;71.46;101213.64;1742504;81;21299;-76
2022/01/13 07:19:03;;;;;;;12.60;4.92;;;;;;;-12.52;71.52;101213.66;1741604;81;21169;-78
2022/01/13 07:22:11;;;;;;;11.00;6.03;;;;;;;-12.64;71.79;101218.13;1742956;81;21299;-78
2022/01/13 07:25:17;;;;;;;11.45;6.22;;;;;;;-12.67;72.29;101215.50;1742769;81;21218;-78
2022/01/13 07:28:46;;;;;;;9.10;4.62;;;;;;;-12.64;72.62;101214.17;1743269;80;21742;-77
2022/01/13 07:31:53;;;;;;;8.18;5.00;;;;;;;-12.66;72.57;101209.34;1740582;81;21367;-78
2022/01/13 07:35:06;;;;;;;12.25;5.80;;;;;;;-12.67;72.60;101208.91;1711827;83;21177;-77
2022/01/13 07:38:14;;;;;;;6.35;4.05;;;;;;;-12.60;72.95;101215.48;1741817;81;21318;-77
2022/01/13 07:41:13;;;;;;;8.10;4.72;;;;;;;-12.53;72.91;101198.73;1744442;80;21810;-81
2022/01/13 07:44:19;;;;;;;12.20;5.05;;;;;;;-12.59;72.91;101186.48;1710280;82;21311;-83
2022/01/13 07:47:29;;;;;;;12.98;5.37;;;;;;;-12.60;73.07;101197.04;1712706;81;21877;-82
2022/01/13 07:50:35;;;;;;;9.98;5.25;;;;;;;-12.59;73.45;101202.30;1741634;80;21192;-78
2022/01/13 07:53:42;;;;;;;15.65;5.37;;;;;;;-12.57;73.33;101199.63;1743982;80;21649;-81
2022/01/13 07:56:46;;;;;;;13.22;5.62;;;;;;;-12.56;73.53;101206.65;1739021;80;21524;-78
2022/01/13 07:59:52;;;;;;;15.43;6.70;;;;;;;-12.44;73.81;101201.31;1742361;80;21169;-77
2022/01/13 08:03:00;;;;;;;19.87;5.80;;;;;;;-12.31;73.96;101206.06;1747856;81;21899;-79
2022/01/13 08:06:05;;;;;;;13.95;6.90;;;;;;;-12.12;73.98;101207.23;1731999;80;21775;-82
2022/01/13 08:09:11;;;;;;;14.60;5.75;;;;;;;-12.07;73.10;101196.64;1729932;82;21198;-81
2022/01/13 08:12:24;;;;;;;11.10;5.33;;;;;;;-12.08;72.97;101198.86;1731581;80;21200;-82
2022/01/13 08:15:34;;;;;;;16.05;5.67;;;;;;;-12.10;73.15;101196.66;1717056;80;22183;-77
2022/01/13 08:22:09;;;;;;;8.70;4.45;;;;;;;-11.98;73.09;101178.09;1732737;80;21305;-81
2022/01/13 08:25:17;;;;;;;14.53;6.60;;;;;;;-11.89;73.27;101179.78;1734851;81;21778;-82
2022/01/13 08:28:27;;;;;;;11.03;5.80;;;;;;;-11.78;73.30;101187.11;1732197;82;21313;-78
2022/01/13 08:31:30;;;;;;;10.65;5.80;;;;;;;-11.65;73.33;101169.39;1734374;80;21242;-77
2022/01/13 08:34:36;;;;;;;11.50;5.40;;;;;;;-11.55;73.22;101155.65;1730283;81;21447;-76
2022/01/13 08:37:45;;;;;;;11.10;5.62;;;;;;;-11.43;72.53;101158.13;1730699;82;21721;-76
2022/01/13 08:40:56;;;;;;;14.00;5.97;;;;;;;-11.32;72.69;101150.98;1719610;81;21442;-76
2022/01/13 08:44:05;;;;;;;14.63;6.65;;;;;;;-11.22;72.69;101153.93;1698002;82;21221;-77
2022/01/13 08:47:12;;;;;;;11.53;5.70;;;;;;;-11.26;72.02;101143.42;1731973;82;22249;-77
2022/01/13 08:50:18;;;;;;;15.93;7.15;;;;;;;-11.22;72.76;101135.44;1693711;82;21323;-76
2022/01/13 08:53:24;;;;;;;13.72;6.72;;;;;;;-11.10;72.62;101131.33;1727367;81;21350;-77
2022/01/13 08:56:31;;;;;;;13.83;6.10;;;;;;;-11.09;72.22;101136.17;1694510;82;21177;-77
2022/01/13 08:59:36;;;;;;;14.20;5.85;;;;;;;-11.15;71.87;101138.86;1729629;82;21190;-79
2022/01/13 09:02:42;;;;;;;11.88;5.37;;;;;;;-11.18;71.97;101134.96;1718993;81;21192;-76
2022/01/13 09:05:50;;;;;;;13.40;6.87;;;;;;;-11.21;72.22;101137.19;1726112;82;21197;-76
2022/01/13 09:08:55;;;;;;;11.85;6.60;;;;;;;-11.22;72.40;101135.89;1729458;82;21823;-77
2022/01/13 09:12:02;;;;;;;12.85;6.10;;;;;;;-11.23;72.45;101129.73;1728190;80;21189;-78
2022/01/13 09:15:38;;;;;;;12.73;5.92;;;;;;;-11.20;72.91;101124.39;1730521;80;21783;-78
2022/01/13 09:22:01;;;;;;;12.60;6.15;;;;;;;-11.05;73.81;101089.41;1655994;85;21840;-78
2022/01/13 09:25:13;;;;;;;15.20;6.12;;;;;;;-11.00;73.15;101096.41;1659242;84;21265;-79
2022/01/13 09:28:18;;;;;;;13.62;6.15;;;;;;;-10.96;73.31;101094.57;1659193;84;21347;-79
2022/01/13 09:31:22;;;;;;;13.58;7.08;;;;;;;-10.96;73.72;101082.68;1659998;85;22753;-78
2022/01/13 09:34:29;;;;;;;13.10;7.15;;;;;;;-10.95;73.77;101074.75;1670637;85;21254;-82
2022/01/13 09:37:35;;;;;;;14.10;6.90;;;;;;;-10.90;73.87;101074.69;1657313;85;21280;-78
2022/01/13 09:40:40;;;;;;;16.02;6.75;;;;;;;-10.82;74.16;101075.42;1657019;84;21538;-78
2022/01/13 09:43:47;;;;;;;15.30;7.85;;;;;;;-10.77;73.93;101064.36;1656680;84;21234;-78
2022/01/13 09:46:52;;;;;;;17.67;8.63;;;;;;;-10.67;74.81;101061.98;1670118;83;21252;-79
2022/01/13 09:49:57;;;;;;;15.90;8.40;;;;;;;-10.49;74.76;101049.34;1677751;83;21273;-79
2022/01/13 09:53:03;;;;;;;18.62;8.90;;;;;;;-10.35;74.07;101052.62;1676384;83;21233;-77
2022/01/13 09:56:10;;;;;;;15.88;6.97;;;;;;;-10.32;73.57;101051.25;1674691;83;21244;-78
2022/01/13 09:59:17;;;;;;;14.63;7.90;;;;;;;-10.28;73.77;101038.86;1681554;83;21315;-78
2022/01/13 10:02:23;;;;;;;17.02;8.63;;;;;;;-10.20;73.98;101047.05;1657818;85;21250;-78
2022/01/13 10:05:33;;;;;;;19.02;10.10;;;;;;;-10.18;73.61;101039.94;1679117;83;21235;-78
2022/01/13 10:08:52;;;;;;;16.60;7.65;;;;;;;-10.17;73.68;101035.52;1678952;83;21862;-77
2022/01/13 10:11:59;;;;;;;21.33;9.65;;;;;;;-10.17;73.51;101039.03;1631796;85;21232;-78
2022/01/13 10:19:07;;;;;;;19.23;9.48;;;;;;;-10.13;74.41;101024.84;1656664;85;22379;-78
2022/01/13 10:22:27;;;;;;;15.83;8.48;;;;;;;-10.06;74.28;101013.27;1644222;84;21220;-77
2022/01/13 10:25:46;;;;;;;22.52;10.85;;;;;;;-10.05;74.13;101012.81;1660206;85;21523;-78
2022/01/13 10:29:09;;;;;;;21.87;9.13;;;;;;;-9.98;74.91;101017.52;1638580;85;21254;-79
2022/01/13 10:32:18;;;;;;;23.12;10.32;;;;;;;-9.83;75.10;101006.65;1620519;85;21269;-79
2022/01/13 10:35:25;;;;;;;23.80;11.57;;;;;;;-9.77;75.16;101003.87;1688111;83;21227;-77
2022/01/13 10:38:31;;;;;;;21.10;10.72;;;;;;;-9.72;75.27;101002.00;1682317;83;21409;-77
2022/01/13 10:41:50;;;;;;;29.95;11.55;;;;;;;-9.68;75.21;101020.02;1684236;83;21553;-77
2022/01/13 10:44:44;;;;;;;19.23;11.25;;;;;;;-9.70;74.86;101026.66;1686675;83;21889;-77
2022/01/13 10:48:25;;;;;;;26.33;11.83;;;;;;;-9.72;75.19;101007.75;1673623;84;21260;-80
2022/01/13 10:51:33;;;;;;;25.68;11.22;;;;;;;-9.73;74.75;101006.01;1673923;84;21319;-78
2022/01/13 10:54:37;;;;;;;26.80;11.90;;;;;;;-9.69;74.87;100998.39;1657451;85;21354;-79
2022/01/13 10:57:43;;;;;;;23.85;11.83;;;;;;;-9.61;75.54;100992.03;1686510;83;21861;-79
2022/01/13 11:00:50;;;;;;;21.95;11.90;;;;;;;-9.57;75.27;100988.42;1675010;84;21326;-78
2022/01/13 11:03:57;;;;;;;25.23;10.78;;;;;;;-9.55;75.43;100978.69;1678570;83;21223;-78
2022/01/13 11:07:27;;;;;;;24.20;11.65;;;;;;;-9.48;76.28;100974.56;1684793;83;21338;-78
2022/01/13 11:10:35;;;;;;;22.05;10.53;;;;;;;-9.36;76.74;100967.23;1682595;83;21272;-79
2022/01/13 11:13:43;;;;;;;30.30;11.43;;;;;;;-9.29;76.01;100958.67;1689384;83;21228;-78
2022/01/13 11:16:59;;;;;;;24.20;11.45;;;;;;;-9.29;75.61;100955.56;1687173;83;21238;-79
2022/01/13 11:20:10;;;;;;;21.35;11.57;;;;;;;-9.25;76.00;100947.09;1681824;83;21310;-79
2022/01/13 11:23:19;;;;;;;21.25;10.18;;;;;;;-9.24;75.47;100945.31;1679417;83;21232;-78
2022/01/13 11:26:30;;;;;;;22.02;11.43;;;;;;;-9.24;75.74;100941.34;1687578;83;22176;-81
2022/01/13 11:29:40;;;;;;;21.75;9.85;;;;;;;-9.24;75.69;100946.19;1681524;83;21350;-79
2022/01/13 11:32:50;;;;;;;17.27;8.50;;;;;;;-9.18;75.78;100943.38;1685039;83;21818;-77
2022/01/13 11:35:58;;;;;;;19.12;10.05;;;;;;;-9.15;75.80;100941.13;1679847;83;21219;-78
2022/01/13 11:39:12;;;;;;;19.77;9.68;;;;;;;-9.15;75.86;100935.36;1642129;84;21892;-79
2022/01/13 11:42:23;;;;;;;14.53;8.30;;;;;;;-9.10;76.21;100945.40;1724360;81;21394;-79
2022/01/13 11:45:29;;;;;;;;;;;;;;;-8.97;76.45;100942.47;1725435;81;21506;-79
2022/01/13 11:48:37;;;;;;;22.45;8.83;;;;;;;-8.90;76.33;100947.55;1726882;81;20311;-79
2022/01/13 11:52:32;;;;;;;17.42;8.15;;;;;;;-8.90;76.05;100937.41;1698773;81;21366;-80
2022/01/13 11:55:35;;;;;;;17.12;7.70;;;;;;;-8.83;76.68;100937.23;1720487;82;21295;-79
2022/01/13 11:58:52;;;;;;;19.17;9.63;;;;;;;-8.70;76.52;100943.09;1727241;81;21907;-79
2022/01/13 12:01:57;;;;;;;17.10;8.23;;;;;;;-8.60;76.18;100926.03;1723070;81;21577;-79
2022/01/13 12:05:20;;;;;;;15.40;8.10;;;;;;;-8.47;75.99;100940.27;1724370;81;21188;-79
2022/01/13 12:08:54;;;;;;;12.68;5.90;;;;;;;-8.38;75.90;100934.26;1720680;81;21315;-80
2022/01/13 12:12:03;;;;;;;19.85;8.00;;;;;;;-8.30;75.47;100930.05;1721835;81;21636;-80
2022/01/13 12:15:28;;;;;;;19.42;8.00;;;;;;;-8.31;75.42;100925.20;1690014;82;21224;-80
2022/01/13 12:19:08;;;;;;;19.35;7.55;;;;;;;-8.26;75.46;100930.38;1716609;81;22478;-79
2022/01/13 12:22:18;;;;;;;17.23;8.00;;;;;;;-8.15;75.26;100928.75;1727354;81;21713;-78
2022/01/13 12:25:29;;;;;;;11.10;6.72;;;;;;;-8.11;74.96;100920.66;1722196;81;21203;-79
2022/01/13 12:28:34;;;;;;;16.00;7.42;;;;;;;-8.10;74.89;100929.02;1713959;82;21202;-78
2022/01/13 12:31:39;;;;;;;19.00;7.80;;;;;;;-8.02;75.00;100918.20;1707386;81;21879;-79
2022/01/13 12:34:55;;;;;;;15.93;7.70;;;;;;;-8.00;74.50;100917.25;1723295;82;22205;-78
2022/01/13 12:38:18;;;;;;;16.12;7.58;;;;;;;-7.98;74.04;100915.41;1695880;82;21335;-79
2022/01/13 12:41:27;;;;;;;16.95;7.50;;;;;;;-7.99;73.44;100910.16;1730902;81;21303;-78
2022/01/13 12:47:56;;;;;;;11.22;6.72;;;;;;;-8.02;73.20;100907.12;1675171;84;22336;-80
2022/01/13 12:51:02;;;;;;;12.00;6.80;;;;;;;-7.98;73.41;100897.28;1676744;83;21371;-77
2022/01/13 12:54:07;;;;;;;16.20;6.17;;;;;;;-7.94;72.44;100892.30;1723108;81;21865;-79
2022/01/13 12:57:13;;;;;;;12.73;6.75;;;;;;;-7.94;71.22;100892.30;1721990;81;21323;-82
2022/01/13 13:00:20;;;;;;;11.83;6.67;;;;;;;-7.92;71.30;100877.64;1722993;81;21314;-79
2022/01/13 13:03:27;;;;;;;11.70;6.05;;;;;;;-7.91;71.33;100883.36;1728470;81;21933;-79
2022/01/13 13:06:36;;;;;;;15.85;5.67;;;;;;;-7.86;71.54;100879.64;1694268;81;21251;-80
2022/01/13 13:09:41;;;;;;;12.63;6.15;;;;;;;-7.77;71.53;100876.70;1702223;82;21791;-79
2022/01/13 13:12:46;;;;;;;17.52;7.10;;;;;;;-7.72;71.37;100878.77;1720517;81;21271;-79
2022/01/13 13:16:10;;;;;;;13.93;5.75;;;;;;;-7.66;71.38;100877.73;1721657;81;21869;-79
2022/01/13 13:19:16;;;;;;;20.32;6.67;;;;;;;-7.59;70.77;100872.62;1726135;81;21568;-78
2022/01/13 13:22:22;;;;;;;11.95;5.70;;;;;;;-7.58;70.46;100871.69;1725845;81;21664;-78
2022/01/13 13:25:40;;;;;;;13.83;6.80;;;;;;;-7.56;69.76;100856.59;1722906;81;21321;-77
2022/01/13 13:28:51;;;;;;;15.40;6.47;;;;;;;-7.64;68.85;100854.63;1727112;82;21334;-78
2022/01/13 13:31:57;;;;;;;17.60;6.12;;;;;;;-7.69;69.19;100845.94;1698425;81;21183;-77
2022/01/13 13:35:03;;;;;;;16.37;6.62;;;;;;;-7.68;69.58;100842.35;1699057;81;22552;-77
2022/01/13 13:38:09;;;;;;;14.55;7.03;;;;;;;-7.67;69.82;100823.30;1722966;81;21226;-79
2022/01/13 13:41:16;;;;;;;13.98;6.12;;;;;;;-7.65;69.62;100813.51;1729015;81;21286;-79
2022/01/13 13:44:28;;;;;;;9.23;4.95;;;;;;;-7.59;69.32;100818.62;1722967;81;21337;-78
2022/01/13 13:47:34;;;;;;;16.02;6.12;;;;;;;-7.57;68.71;100832.27;1728861;81;21322;-79
2022/01/13 13:50:40;;;;;;;25.85;6.35;;;;;;;-7.59;68.47;100833.23;1720822;82;21290;-78
2022/01/13 13:53:45;;;;;;;22.20;8.03;;;;;;;-7.56;68.42;100832.67;1704542;82;21283;-78
2022/01/13 13:57:01;;;;;;;15.63;6.60;;;;;;;-7.55;68.19;100839.72;1725323;82;21632;-77
2022/01/13 14:00:06;;;;;;;16.87;5.42;;;;;;;-7.54;68.39;100833.48;1718863;81;22577;-77
2022/01/13 14:03:14;;;;;;;14.00;6.70;;;;;;;-7.49;68.65;100812.94;1724515;82;21295;-77
2022/01/13 14:06:18;;;;;;;13.15;6.22;;;;;;;-7.47;68.83;100787.20;1733723;81;21315;-78
2022/01/13 14:09:25;;;;;;;17.25;6.72;;;;;;;-7.46;68.79;100780.09;1711128;81;21255;-77
2022/01/13 14:12:35;;;;;;;15.53;5.65;;;;;;;-7.45;68.79;100783.16;1729299;82;21290;-77
2022/01/13 14:15:48;;;;;;;14.43;6.28;;;;;;;-7.39;68.64;100783.41;1724287;82;21400;-77
2022/01/13 14:19:12;;;;;;;9.95;5.05;;;;;;;-7.39;68.57;100785.60;1722213;82;21326;-77
2022/01/13 14:22:18;;;;;;;15.18;7.28;;;;;;;-7.34;68.53;100792.99;1726655;82;21343;-78
2022/01/13 14:25:23;;;;;;;14.87;6.35;;;;;;;-7.34;68.36;100786.34;1732625;82;21192;-77
2022/01/13 14:28:31;;;;;;;20.27;6.35;;;;;;;-7.33;68.39;100771.27;1733692;82;21314;-78
2022/01/13 14:31:43;;;;;;;13.43;6.25;;;;;;;-7.25;68.36;100766.53;1736333;81;21222;-77
2022/01/13 14:34:53;;;;;;;18.60;6.85;;;;;;;-7.15;68.23;100763.09;1735563;82;21402;-78
2022/01/13 14:38:03;;;;;;;19.90;8.35;;;;;;;-7.13;67.91;100766.58;1732626;82;21208;-76
2022/01/13 14:41:08;;;;;;;20.60;8.83;;;;;;;-7.10;68.11;100780.64;1730296;81;21172;-77
2022/01/13 14:44:20;;;;;;;17.80;7.90;;;;;;;-7.00;68.11;100778.06;1713518;82;21615;-76
2022/01/13 14:47:25;;;;;;;15.55;7.58;;;;;;;-6.89;68.29;100772.83;1731179;81;21831;-76
2022/01/13 14:50:30;;;;;;;19.90;7.50;;;;;;;-6.84;68.24;100774.85;1714742;82;21216;-77